sensor_id;sensor_type;location;lat;lon;timestamp;P1;durP1;ratioP1;P2;durP2;ratioP2
7517;SDS011;3800;48.922;9.444;2023-01-29T00:00:29;6.83;;;6.07;;
7517;SDS011;3800;48.922;9.444;2023-01-29T00:02:59;6.07;;;5.57;;
7517;SDS011;3800;48.922;9.444;2023-01-29T00:05:27;6.93;;;6.33;;
7517;SDS011;3800;48.922;9.444;2023-01-29T00:07:56;6.67;;;6.07;;
7517;SDS011;3800;48.922;9.444;2023-01-29T00:10:24;6.93;;;6.23;;
7517;SDS011;3800;48.922;9.444;2023-01-29T00:12:52;6.67;;;6.07;;
7517;SDS011;3800;48.922;9.444;2023-01-29T00:15:19;6.67;;;6.07;;
7517;SDS011;3800;48.922;9.444;2023-01-29T00:17:47;7.20;;;6.50;;
7517;SDS011;3800;48.922;9.444;2023-01-29T00:20:15;7.60;;;6.27;;
7517;SDS011;3800;48.922;9.444;2023-01-29T00:22:42;5.93;;;5.43;;
7517;SDS011;3800;48.922;9.444;2023-01-29T00:25:10;7.50;;;6.80;;
7517;SDS011;3800;48.922;9.444;2023-01-29T00:27:38;7.07;;;6.37;;
7517;SDS011;3800;48.922;9.444;2023-01-29T00:30:06;7.27;;;6.40;;
7517;SDS011;3800;48.922;9.444;2023-01-29T00:32:36;9.33;;;7.10;;
7517;SDS011;3800;48.922;9.444;2023-01-29T00:35:05;7.30;;;6.53;;
7517;SDS011;3800;48.922;9.444;2023-01-29T00:37:33;8.50;;;6.00;;
7517;SDS011;3800;48.922;9.444;2023-01-29T00:40:01;6.83;;;6.20;;
7517;SDS011;3800;48.922;9.444;2023-01-29T00:42:28;6.70;;;6.00;;
7517;SDS011;3800;48.922;9.444;2023-01-29T00:45:01;6.63;;;5.93;;
7517;SDS011;3800;48.922;9.444;2023-01-29T00:47:31;6.97;;;6.27;;
7517;SDS011;3800;48.922;9.444;2023-01-29T00:50:01;6.60;;;6.00;;
7517;SDS011;3800;48.922;9.444;2023-01-29T00:52:28;6.63;;;6.03;;
7517;SDS011;3800;48.922;9.444;2023-01-29T00:54:56;7.00;;;6.37;;
7517;SDS011;3800;48.922;9.444;2023-01-29T00:57:24;6.90;;;6.20;;
7517;SDS011;3800;48.922;9.444;2023-01-29T00:59:52;6.70;;;6.10;;
7517;SDS011;3800;48.922;9.444;2023-01-29T01:02:20;6.33;;;5.73;;
7517;SDS011;3800;48.922;9.444;2023-01-29T01:04:53;7.57;;;6.13;;
7517;SDS011;3800;48.922;9.444;2023-01-29T01:07:21;6.97;;;6.30;;
7517;SDS011;3800;48.922;9.444;2023-01-29T01:09:48;6.60;;;6.00;;
7517;SDS011;3800;48.922;9.444;2023-01-29T01:12:21;6.53;;;5.93;;
7517;SDS011;3800;48.922;9.444;2023-01-29T01:14:53;6.93;;;6.27;;
7517;SDS011;3800;48.922;9.444;2023-01-29T01:17:20;6.23;;;5.63;;
7517;SDS011;3800;48.922;9.444;2023-01-29T01:19:48;6.37;;;5.77;;
7517;SDS011;3800;48.922;9.444;2023-01-29T01:22:16;9.63;;;6.73;;
7517;SDS011;3800;48.922;9.444;2023-01-29T01:24:43;6.83;;;6.23;;
7517;SDS011;3800;48.922;9.444;2023-01-29T01:27:11;6.77;;;6.07;;
7517;SDS011;3800;48.922;9.444;2023-01-29T01:29:38;9.57;;;8.30;;
7517;SDS011;3800;48.922;9.444;2023-01-29T01:32:06;7.27;;;6.57;;
7517;SDS011;3800;48.922;9.444;2023-01-29T01:34:34;9.10;;;8.03;;
7517;SDS011;3800;48.922;9.444;2023-01-29T01:37:01;11.73;;;9.37;;
7517;SDS011;3800;48.922;9.444;2023-01-29T01:39:29;13.80;;;9.53;;
7517;SDS011;3800;48.922;9.444;2023-01-29T01:41:57;9.63;;;7.70;;
7517;SDS011;3800;48.922;9.444;2023-01-29T01:47:05;6.60;;;6.00;;
7517;SDS011;3800;48.922;9.444;2023-01-29T01:49:33;10.53;;;8.10;;
7517;SDS011;3800;48.922;9.444;2023-01-29T01:52:01;10.50;;;8.23;;
7517;SDS011;3800;48.922;9.444;2023-01-29T01:54:29;8.13;;;6.63;;
7517;SDS011;3800;48.922;9.444;2023-01-29T01:56:57;6.23;;;5.57;;
7517;SDS011;3800;48.922;9.444;2023-01-29T01:59:24;6.50;;;5.70;;
7517;SDS011;3800;48.922;9.444;2023-01-29T02:01:52;8.93;;;7.60;;
7517;SDS011;3800;48.922;9.444;2023-01-29T02:04:20;14.73;;;10.27;;
7517;SDS011;3800;48.922;9.444;2023-01-29T02:06:53;9.93;;;8.13;;
7517;SDS011;3800;48.922;9.444;2023-01-29T02:09:31;10.67;;;7.87;;
7517;SDS011;3800;48.922;9.444;2023-01-29T02:12:02;8.17;;;7.37;;
7517;SDS011;3800;48.922;9.444;2023-01-29T02:14:38;7.47;;;6.60;;
7517;SDS011;3800;48.922;9.444;2023-01-29T02:17:06;6.80;;;6.20;;
7517;SDS011;3800;48.922;9.444;2023-01-29T02:19:37;6.47;;;5.87;;
7517;SDS011;3800;48.922;9.444;2023-01-29T02:22:28;6.70;;;6.10;;
7517;SDS011;3800;48.922;9.444;2023-01-29T02:25:29;6.80;;;6.10;;
7517;SDS011;3800;48.922;9.444;2023-01-29T02:28:05;7.23;;;5.47;;
7517;SDS011;3800;48.922;9.444;2023-01-29T02:30:36;6.47;;;5.60;;
7517;SDS011;3800;48.922;9.444;2023-01-29T02:33:13;6.10;;;5.60;;
7517;SDS011;3800;48.922;9.444;2023-01-29T02:35:55;6.53;;;5.93;;
7517;SDS011;3800;48.922;9.444;2023-01-29T02:41:00;6.53;;;5.93;;
7517;SDS011;3800;48.922;9.444;2023-01-29T02:43:29;7.00;;;6.30;;
7517;SDS011;3800;48.922;9.444;2023-01-29T02:46:03;6.60;;;5.97;;
7517;SDS011;3800;48.922;9.444;2023-01-29T02:48:35;6.97;;;6.27;;
7517;SDS011;3800;48.922;9.444;2023-01-29T02:51:17;6.77;;;5.67;;
7517;SDS011;3800;48.922;9.444;2023-01-29T02:56:37;8.43;;;7.60;;
7517;SDS011;3800;48.922;9.444;2023-01-29T02:59:07;6.70;;;6.10;;
7517;SDS011;3800;48.922;9.444;2023-01-29T03:01:37;7.67;;;6.70;;
7517;SDS011;3800;48.922;9.444;2023-01-29T03:04:05;7.03;;;6.40;;
7517;SDS011;3800;48.922;9.444;2023-01-29T03:06:31;7.13;;;6.43;;
7517;SDS011;3800;48.922;9.444;2023-01-29T03:09:01;6.87;;;5.93;;
7517;SDS011;3800;48.922;9.444;2023-01-29T03:11:31;6.90;;;6.30;;
7517;SDS011;3800;48.922;9.444;2023-01-29T03:13:59;6.27;;;5.67;;
7517;SDS011;3800;48.922;9.444;2023-01-29T03:19:14;6.73;;;5.87;;
7517;SDS011;3800;48.922;9.444;2023-01-29T03:21:43;6.83;;;6.13;;
7517;SDS011;3800;48.922;9.444;2023-01-29T03:24:20;6.57;;;5.97;;
7517;SDS011;3800;48.922;9.444;2023-01-29T03:26:50;7.57;;;6.03;;
7517;SDS011;3800;48.922;9.444;2023-01-29T03:29:24;7.03;;;6.03;;
7517;SDS011;3800;48.922;9.444;2023-01-29T03:31:57;6.17;;;5.57;;
7517;SDS011;3800;48.922;9.444;2023-01-29T03:34:31;8.03;;;5.77;;
7517;SDS011;3800;48.922;9.444;2023-01-29T03:36:58;6.43;;;5.60;;
7517;SDS011;3800;48.922;9.444;2023-01-29T03:39:26;6.73;;;6.13;;
7517;SDS011;3800;48.922;9.444;2023-01-29T03:41:55;6.40;;;5.80;;
7517;SDS011;3800;48.922;9.444;2023-01-29T03:47:13;6.23;;;5.63;;
7517;SDS011;3800;48.922;9.444;2023-01-29T03:49:52;6.57;;;5.87;;
7517;SDS011;3800;48.922;9.444;2023-01-29T03:52:21;6.97;;;6.10;;
7517;SDS011;3800;48.922;9.444;2023-01-29T03:55:00;7.97;;;5.97;;
7517;SDS011;3800;48.922;9.444;2023-01-29T03:57:28;6.50;;;5.90;;
7517;SDS011;3800;48.922;9.444;2023-01-29T04:00:02;6.87;;;6.17;;
7517;SDS011;3800;48.922;9.444;2023-01-29T04:02:29;8.80;;;6.37;;
7517;SDS011;3800;48.922;9.444;2023-01-29T04:04:57;7.33;;;6.53;;
7517;SDS011;3800;48.922;9.444;2023-01-29T04:07:24;6.77;;;6.17;;
7517;SDS011;3800;48.922;9.444;2023-01-29T04:09:53;7.27;;;6.23;;
7517;SDS011;3800;48.922;9.444;2023-01-29T04:12:23;7.80;;;6.20;;
7517;SDS011;3800;48.922;9.444;2023-01-29T04:14:49;7.23;;;6.30;;
7517;SDS011;3800;48.922;9.444;2023-01-29T04:17:17;7.97;;;5.97;;
7517;SDS011;3800;48.922;9.444;2023-01-29T04:19:44;6.10;;;5.50;;
7517;SDS011;3800;48.922;9.444;2023-01-29T04:22:14;8.80;;;6.63;;
7517;SDS011;3800;48.922;9.444;2023-01-29T04:24:40;7.60;;;6.07;;
7517;SDS011;3800;48.922;9.444;2023-01-29T04:27:13;6.70;;;6.00;;
7517;SDS011;3800;48.922;9.444;2023-01-29T04:29:40;7.17;;;6.47;;
7517;SDS011;3800;48.922;9.444;2023-01-29T04:32:27;6.60;;;6.00;;
7517;SDS011;3800;48.922;9.444;2023-01-29T04:35:08;6.63;;;6.00;;
7517;SDS011;3800;48.922;9.444;2023-01-29T04:37:34;6.77;;;6.07;;
7517;SDS011;3800;48.922;9.444;2023-01-29T04:40:02;6.70;;;6.10;;
7517;SDS011;3800;48.922;9.444;2023-01-29T04:42:44;7.47;;;6.63;;
7517;SDS011;3800;48.922;9.444;2023-01-29T04:45:17;6.87;;;6.17;;
7517;SDS011;3800;48.922;9.444;2023-01-29T04:48:05;7.07;;;6.23;;
7517;SDS011;3800;48.922;9.444;2023-01-29T04:50:52;6.63;;;5.93;;
7517;SDS011;3800;48.922;9.444;2023-01-29T04:53:17;7.20;;;6.50;;
7517;SDS011;3800;48.922;9.444;2023-01-29T04:55:51;7.33;;;6.63;;
7517;SDS011;3800;48.922;9.444;2023-01-29T04:58:25;7.03;;;6.33;;
7517;SDS011;3800;48.922;9.444;2023-01-29T05:00:56;7.13;;;6.43;;
7517;SDS011;3800;48.922;9.444;2023-01-29T05:03:24;7.07;;;6.37;;
7517;SDS011;3800;48.922;9.444;2023-01-29T05:05:52;9.30;;;6.77;;
7517;SDS011;3800;48.922;9.444;2023-01-29T05:08:20;7.10;;;5.83;;
7517;SDS011;3800;48.922;9.444;2023-01-29T05:10:47;7.53;;;6.73;;
7517;SDS011;3800;48.922;9.444;2023-01-29T05:13:14;7.17;;;6.47;;
7517;SDS011;3800;48.922;9.444;2023-01-29T05:15:44;7.30;;;6.47;;
7517;SDS011;3800;48.922;9.444;2023-01-29T05:18:10;6.57;;;5.97;;
7517;SDS011;3800;48.922;9.444;2023-01-29T05:20:39;7.63;;;6.40;;
7517;SDS011;3800;48.922;9.444;2023-01-29T05:23:08;7.43;;;6.53;;
7517;SDS011;3800;48.922;9.444;2023-01-29T05:25:35;6.70;;;6.10;;
7517;SDS011;3800;48.922;9.444;2023-01-29T05:28:04;7.40;;;6.60;;
7517;SDS011;3800;48.922;9.444;2023-01-29T05:30:34;7.03;;;6.30;;
7517;SDS011;3800;48.922;9.444;2023-01-29T05:33:01;7.20;;;6.50;;
7517;SDS011;3800;48.922;9.444;2023-01-29T05:35:29;6.70;;;6.10;;
7517;SDS011;3800;48.922;9.444;2023-01-29T05:37:57;7.17;;;6.33;;
7517;SDS011;3800;48.922;9.444;2023-01-29T05:40:25;6.60;;;6.00;;
7517;SDS011;3800;48.922;9.444;2023-01-29T05:42:52;7.07;;;6.37;;
7517;SDS011;3800;48.922;9.444;2023-01-29T05:45:20;6.87;;;6.17;;
7517;SDS011;3800;48.922;9.444;2023-01-29T05:47:48;7.00;;;6.30;;
7517;SDS011;3800;48.922;9.444;2023-01-29T05:50:15;7.23;;;6.53;;
7517;SDS011;3800;48.922;9.444;2023-01-29T05:52:43;7.03;;;6.10;;
7517;SDS011;3800;48.922;9.444;2023-01-29T05:55:11;7.20;;;6.50;;
7517;SDS011;3800;48.922;9.444;2023-01-29T05:57:39;6.90;;;6.20;;
7517;SDS011;3800;48.922;9.444;2023-01-29T06:00:08;6.67;;;6.07;;
7517;SDS011;3800;48.922;9.444;2023-01-29T06:02:36;6.57;;;5.90;;
7517;SDS011;3800;48.922;9.444;2023-01-29T06:05:03;6.77;;;6.17;;
7517;SDS011;3800;48.922;9.444;2023-01-29T06:07:31;7.50;;;6.80;;
7517;SDS011;3800;48.922;9.444;2023-01-29T06:09:59;8.20;;;6.57;;
7517;SDS011;3800;48.922;9.444;2023-01-29T06:12:26;7.07;;;6.37;;
7517;SDS011;3800;48.922;9.444;2023-01-29T06:14:54;7.80;;;7.00;;
7517;SDS011;3800;48.922;9.444;2023-01-29T06:17:22;7.03;;;6.33;;
7517;SDS011;3800;48.922;9.444;2023-01-29T06:19:50;6.60;;;5.97;;
7517;SDS011;3800;48.922;9.444;2023-01-29T06:22:18;7.87;;;6.60;;
7517;SDS011;3800;48.922;9.444;2023-01-29T06:24:45;7.67;;;6.43;;
7517;SDS011;3800;48.922;9.444;2023-01-29T06:27:13;7.23;;;6.53;;
7517;SDS011;3800;48.922;9.444;2023-01-29T06:29:40;8.83;;;7.57;;
7517;SDS011;3800;48.922;9.444;2023-01-29T06:32:08;8.90;;;8.00;;
7517;SDS011;3800;48.922;9.444;2023-01-29T06:34:36;8.23;;;7.43;;
7517;SDS011;3800;48.922;9.444;2023-01-29T06:37:03;8.03;;;6.73;;
7517;SDS011;3800;48.922;9.444;2023-01-29T06:39:31;8.60;;;7.33;;
7517;SDS011;3800;48.922;9.444;2023-01-29T06:41:59;7.10;;;6.40;;
7517;SDS011;3800;48.922;9.444;2023-01-29T06:44:27;9.27;;;7.60;;
7517;SDS011;3800;48.922;9.444;2023-01-29T06:46:55;8.30;;;7.50;;
7517;SDS011;3800;48.922;9.444;2023-01-29T06:49:22;8.10;;;7.30;;
7517;SDS011;3800;48.922;9.444;2023-01-29T06:51:50;8.93;;;7.80;;
7517;SDS011;3800;48.922;9.444;2023-01-29T06:54:18;8.90;;;7.70;;
7517;SDS011;3800;48.922;9.444;2023-01-29T06:56:45;101.37;;;46.93;;
7517;SDS011;3800;48.922;9.444;2023-01-29T06:59:13;45.37;;;23.27;;
7517;SDS011;3800;48.922;9.444;2023-01-29T07:01:41;47.03;;;26.60;;
7517;SDS011;3800;48.922;9.444;2023-01-29T07:04:09;22.07;;;15.27;;
7517;SDS011;3800;48.922;9.444;2023-01-29T07:06:37;18.60;;;16.03;;
7517;SDS011;3800;48.922;9.444;2023-01-29T07:09:05;13.20;;;11.90;;
7517;SDS011;3800;48.922;9.444;2023-01-29T07:11:33;12.67;;;8.87;;
7517;SDS011;3800;48.922;9.444;2023-01-29T07:14:00;10.57;;;8.53;;
7517;SDS011;3800;48.922;9.444;2023-01-29T07:16:28;9.47;;;7.93;;
7517;SDS011;3800;48.922;9.444;2023-01-29T07:18:56;8.40;;;7.60;;
7517;SDS011;3800;48.922;9.444;2023-01-29T07:21:24;10.27;;;8.47;;
7517;SDS011;3800;48.922;9.444;2023-01-29T07:23:52;12.17;;;8.87;;
7517;SDS011;3800;48.922;9.444;2023-01-29T07:26:20;8.17;;;7.37;;
7517;SDS011;3800;48.922;9.444;2023-01-29T07:28:48;11.60;;;10.50;;
7517;SDS011;3800;48.922;9.444;2023-01-29T07:31:15;11.53;;;10.33;;
7517;SDS011;3800;48.922;9.444;2023-01-29T07:33:44;11.47;;;9.27;;
7517;SDS011;3800;48.922;9.444;2023-01-29T07:36:12;9.60;;;8.70;;
7517;SDS011;3800;48.922;9.444;2023-01-29T07:38:40;9.50;;;8.60;;
7517;SDS011;3800;48.922;9.444;2023-01-29T07:41:08;10.17;;;8.70;;
7517;SDS011;3800;48.922;9.444;2023-01-29T07:43:35;9.83;;;8.10;;
7517;SDS011;3800;48.922;9.444;2023-01-29T07:46:04;24.27;;;15.00;;
7517;SDS011;3800;48.922;9.444;2023-01-29T07:48:32;10.97;;;9.77;;
7517;SDS011;3800;48.922;9.444;2023-01-29T07:51:00;9.40;;;7.63;;
7517;SDS011;3800;48.922;9.444;2023-01-29T07:53:27;9.50;;;7.53;;
7517;SDS011;3800;48.922;9.444;2023-01-29T07:55:55;9.27;;;7.80;;
7517;SDS011;3800;48.922;9.444;2023-01-29T07:58:23;8.80;;;7.83;;
7517;SDS011;3800;48.922;9.444;2023-01-29T08:00:50;9.27;;;7.67;;
7517;SDS011;3800;48.922;9.444;2023-01-29T08:03:19;8.53;;;7.73;;
7517;SDS011;3800;48.922;9.444;2023-01-29T08:05:47;9.10;;;8.07;;
7517;SDS011;3800;48.922;9.444;2023-01-29T08:08:15;9.03;;;8.13;;
7517;SDS011;3800;48.922;9.444;2023-01-29T08:10:43;7.90;;;7.17;;
7517;SDS011;3800;48.922;9.444;2023-01-29T08:13:10;8.37;;;7.50;;
7517;SDS011;3800;48.922;9.444;2023-01-29T08:15:38;9.03;;;8.13;;
7517;SDS011;3800;48.922;9.444;2023-01-29T08:18:07;9.43;;;8.40;;
7517;SDS011;3800;48.922;9.444;2023-01-29T08:20:38;9.53;;;8.63;;
7517;SDS011;3800;48.922;9.444;2023-01-29T08:23:09;10.30;;;9.33;;
7517;SDS011;3800;48.922;9.444;2023-01-29T08:25:35;8.23;;;7.30;;
7517;SDS011;3800;48.922;9.444;2023-01-29T08:28:03;11.43;;;8.10;;
7517;SDS011;3800;48.922;9.444;2023-01-29T08:30:32;8.80;;;7.90;;
7517;SDS011;3800;48.922;9.444;2023-01-29T08:32:59;10.07;;;8.00;;
7517;SDS011;3800;48.922;9.444;2023-01-29T08:35:27;7.80;;;7.00;;
7517;SDS011;3800;48.922;9.444;2023-01-29T08:37:56;9.57;;;7.13;;
7517;SDS011;3800;48.922;9.444;2023-01-29T08:40:23;8.00;;;7.10;;
7517;SDS011;3800;48.922;9.444;2023-01-29T08:42:51;7.30;;;6.60;;
7517;SDS011;3800;48.922;9.444;2023-01-29T08:45:19;12.07;;;7.47;;
7517;SDS011;3800;48.922;9.444;2023-01-29T08:47:47;7.50;;;6.70;;
7517;SDS011;3800;48.922;9.444;2023-01-29T08:50:15;9.10;;;7.53;;
7517;SDS011;3800;48.922;9.444;2023-01-29T08:52:43;7.67;;;6.97;;
7517;SDS011;3800;48.922;9.444;2023-01-29T08:55:11;8.73;;;7.70;;
7517;SDS011;3800;48.922;9.444;2023-01-29T08:57:39;8.10;;;7.30;;
7517;SDS011;3800;48.922;9.444;2023-01-29T09:00:08;9.23;;;7.50;;
7517;SDS011;3800;48.922;9.444;2023-01-29T09:02:36;8.30;;;7.50;;
7517;SDS011;3800;48.922;9.444;2023-01-29T09:05:03;8.20;;;7.17;;
7517;SDS011;3800;48.922;9.444;2023-01-29T09:07:31;7.93;;;6.83;;
7517;SDS011;3800;48.922;9.444;2023-01-29T09:10:00;7.83;;;6.80;;
7517;SDS011;3800;48.922;9.444;2023-01-29T09:12:29;7.40;;;6.70;;
7517;SDS011;3800;48.922;9.444;2023-01-29T09:14:57;8.07;;;7.23;;
7517;SDS011;3800;48.922;9.444;2023-01-29T09:17:26;8.13;;;7.30;;
7517;SDS011;3800;48.922;9.444;2023-01-29T09:19:53;7.23;;;6.53;;
7517;SDS011;3800;48.922;9.444;2023-01-29T09:22:22;8.23;;;6.90;;
7517;SDS011;3800;48.922;9.444;2023-01-29T09:24:52;7.67;;;6.97;;
7517;SDS011;3800;48.922;9.444;2023-01-29T09:27:20;7.33;;;6.13;;
7517;SDS011;3800;48.922;9.444;2023-01-29T09:29:48;7.40;;;6.60;;
7517;SDS011;3800;48.922;9.444;2023-01-29T09:32:16;7.23;;;6.53;;
7517;SDS011;3800;48.922;9.444;2023-01-29T09:34:44;7.40;;;6.70;;
7517;SDS011;3800;48.922;9.444;2023-01-29T09:37:13;7.43;;;6.63;;
7517;SDS011;3800;48.922;9.444;2023-01-29T09:39:41;8.77;;;7.20;;
7517;SDS011;3800;48.922;9.444;2023-01-29T09:42:11;13.20;;;10.20;;
7517;SDS011;3800;48.922;9.444;2023-01-29T09:44:53;10.50;;;6.70;;
7517;SDS011;3800;48.922;9.444;2023-01-29T09:47:35;9.97;;;6.83;;
7517;SDS011;3800;48.922;9.444;2023-01-29T09:50:09;9.17;;;8.00;;
7517;SDS011;3800;48.922;9.444;2023-01-29T09:52:53;9.63;;;8.47;;
7517;SDS011;3800;48.922;9.444;2023-01-29T09:55:23;8.90;;;7.97;;
7517;SDS011;3800;48.922;9.444;2023-01-29T09:57:53;8.27;;;6.63;;
7517;SDS011;3800;48.922;9.444;2023-01-29T10:00:23;7.03;;;6.33;;
7517;SDS011;3800;48.922;9.444;2023-01-29T10:02:54;7.53;;;6.73;;
7517;SDS011;3800;48.922;9.444;2023-01-29T10:08:03;7.87;;;6.53;;
7517;SDS011;3800;48.922;9.444;2023-01-29T10:10:33;8.27;;;7.23;;
7517;SDS011;3800;48.922;9.444;2023-01-29T10:13:05;9.73;;;7.67;;
7517;SDS011;3800;48.922;9.444;2023-01-29T10:15:51;9.20;;;6.80;;
7517;SDS011;3800;48.922;9.444;2023-01-29T10:23:51;8.47;;;6.90;;
7517;SDS011;3800;48.922;9.444;2023-01-29T10:26:32;8.47;;;6.90;;
7517;SDS011;3800;48.922;9.444;2023-01-29T10:29:00;9.43;;;7.43;;
7517;SDS011;3800;48.922;9.444;2023-01-29T10:31:29;8.17;;;7.43;;
7517;SDS011;3800;48.922;9.444;2023-01-29T10:33:59;7.90;;;7.20;;
7517;SDS011;3800;48.922;9.444;2023-01-29T10:36:32;7.83;;;6.60;;
7517;SDS011;3800;48.922;9.444;2023-01-29T10:38:59;8.40;;;6.50;;
7517;SDS011;3800;48.922;9.444;2023-01-29T10:44:03;9.10;;;7.20;;
7517;SDS011;3800;48.922;9.444;2023-01-29T10:46:35;8.70;;;7.80;;
7517;SDS011;3800;48.922;9.444;2023-01-29T10:49:23;8.03;;;7.23;;
7517;SDS011;3800;48.922;9.444;2023-01-29T10:51:57;7.40;;;6.70;;
7517;SDS011;3800;48.922;9.444;2023-01-29T10:57:12;9.33;;;8.43;;
7517;SDS011;3800;48.922;9.444;2023-01-29T10:59:40;8.57;;;7.67;;
7517;SDS011;3800;48.922;9.444;2023-01-29T11:02:12;9.43;;;6.83;;
7517;SDS011;3800;48.922;9.444;2023-01-29T11:04:38;9.27;;;7.70;;
7517;SDS011;3800;48.922;9.444;2023-01-29T11:07:06;8.33;;;7.47;;
7517;SDS011;3800;48.922;9.444;2023-01-29T11:09:35;8.63;;;7.53;;
7517;SDS011;3800;48.922;9.444;2023-01-29T11:12:12;7.77;;;7.07;;
7517;SDS011;3800;48.922;9.444;2023-01-29T11:14:46;8.23;;;7.43;;
7517;SDS011;3800;48.922;9.444;2023-01-29T11:17:16;9.03;;;7.40;;
7517;SDS011;3800;48.922;9.444;2023-01-29T11:19:45;12.47;;;7.60;;
7517;SDS011;3800;48.922;9.444;2023-01-29T11:22:20;7.30;;;6.50;;
7517;SDS011;3800;48.922;9.444;2023-01-29T11:27:27;11.40;;;7.67;;
7517;SDS011;3800;48.922;9.444;2023-01-29T11:29:56;8.37;;;7.47;;
7517;SDS011;3800;48.922;9.444;2023-01-29T11:32:25;8.90;;;7.60;;
7517;SDS011;3800;48.922;9.444;2023-01-29T11:34:55;7.80;;;7.10;;
7517;SDS011;3800;48.922;9.444;2023-01-29T11:37:33;9.07;;;7.37;;
7517;SDS011;3800;48.922;9.444;2023-01-29T11:40:01;8.97;;;7.93;;
7517;SDS011;3800;48.922;9.444;2023-01-29T11:42:29;9.40;;;8.43;;
7517;SDS011;3800;48.922;9.444;2023-01-29T11:44:56;8.90;;;8.07;;
7517;SDS011;3800;48.922;9.444;2023-01-29T11:47:26;8.37;;;7.57;;
7517;SDS011;3800;48.922;9.444;2023-01-29T11:49:54;10.30;;;8.63;;
7517;SDS011;3800;48.922;9.444;2023-01-29T11:52:23;10.13;;;8.00;;
7517;SDS011;3800;48.922;9.444;2023-01-29T11:54:52;8.03;;;7.23;;
7517;SDS011;3800;48.922;9.444;2023-01-29T11:57:25;9.43;;;8.43;;
7517;SDS011;3800;48.922;9.444;2023-01-29T11:59:52;10.60;;;9.50;;
7517;SDS011;3800;48.922;9.444;2023-01-29T12:02:22;10.13;;;9.13;;
7517;SDS011;3800;48.922;9.444;2023-01-29T12:04:49;10.63;;;9.53;;
7517;SDS011;3800;48.922;9.444;2023-01-29T12:07:17;17.63;;;13.20;;
7517;SDS011;3800;48.922;9.444;2023-01-29T12:09:47;10.83;;;9.73;;
7517;SDS011;3800;48.922;9.444;2023-01-29T12:12:16;14.03;;;10.90;;
7517;SDS011;3800;48.922;9.444;2023-01-29T12:14:44;11.60;;;9.47;;
7517;SDS011;3800;48.922;9.444;2023-01-29T12:17:15;10.60;;;9.50;;
7517;SDS011;3800;48.922;9.444;2023-01-29T12:19:44;9.80;;;8.80;;
7517;SDS011;3800;48.922;9.444;2023-01-29T12:22:16;11.83;;;10.43;;
7517;SDS011;3800;48.922;9.444;2023-01-29T12:24:48;24.00;;;14.07;;
7517;SDS011;3800;48.922;9.444;2023-01-29T12:27:23;11.40;;;9.97;;
7517;SDS011;3800;48.922;9.444;2023-01-29T12:29:55;10.70;;;9.60;;
7517;SDS011;3800;48.922;9.444;2023-01-29T12:32:38;11.67;;;10.20;;
7517;SDS011;3800;48.922;9.444;2023-01-29T12:35:12;14.07;;;10.87;;
7517;SDS011;3800;48.922;9.444;2023-01-29T12:37:47;11.33;;;10.10;;
7517;SDS011;3800;48.922;9.444;2023-01-29T12:40:21;11.17;;;9.97;;
7517;SDS011;3800;48.922;9.444;2023-01-29T12:42:49;10.30;;;9.23;;
7517;SDS011;3800;48.922;9.444;2023-01-29T12:45:17;11.10;;;9.90;;
7517;SDS011;3800;48.922;9.444;2023-01-29T12:47:48;11.27;;;10.20;;
7517;SDS011;3800;48.922;9.444;2023-01-29T12:50:46;11.60;;;10.23;;
7517;SDS011;3800;48.922;9.444;2023-01-29T12:53:02;11.90;;;10.70;;
7517;SDS011;3800;48.922;9.444;2023-01-29T12:55:37;11.07;;;9.87;;
7517;SDS011;3800;48.922;9.444;2023-01-29T12:58:13;11.27;;;10.07;;
7517;SDS011;3800;48.922;9.444;2023-01-29T13:00:42;11.53;;;10.33;;
7517;SDS011;3800;48.922;9.444;2023-01-29T13:03:20;12.90;;;9.63;;
7517;SDS011;3800;48.922;9.444;2023-01-29T13:05:49;11.57;;;10.33;;
7517;SDS011;3800;48.922;9.444;2023-01-29T13:08:26;10.97;;;9.87;;
7517;SDS011;3800;48.922;9.444;2023-01-29T13:10:54;14.83;;;10.73;;
7517;SDS011;3800;48.922;9.444;2023-01-29T13:13:26;11.83;;;10.03;;
7517;SDS011;3800;48.922;9.444;2023-01-29T13:15:54;11.50;;;10.30;;
7517;SDS011;3800;48.922;9.444;2023-01-29T13:18:29;10.87;;;9.60;;
7517;SDS011;3800;48.922;9.444;2023-01-29T13:20:51;12.97;;;10.63;;
7517;SDS011;3800;48.922;9.444;2023-01-29T13:23:22;11.60;;;10.40;;
7517;SDS011;3800;48.922;9.444;2023-01-29T13:25:49;13.60;;;10.03;;
7517;SDS011;3800;48.922;9.444;2023-01-29T13:28:19;13.10;;;10.20;;
7517;SDS011;3800;48.922;9.444;2023-01-29T13:30:45;10.77;;;9.73;;
7517;SDS011;3800;48.922;9.444;2023-01-29T13:33:18;14.03;;;11.47;;
7517;SDS011;3800;48.922;9.444;2023-01-29T13:35:42;13.10;;;11.07;;
7517;SDS011;3800;48.922;9.444;2023-01-29T13:40:47;13.50;;;10.90;;
7517;SDS011;3800;48.922;9.444;2023-01-29T13:43:12;12.17;;;10.50;;
7517;SDS011;3800;48.922;9.444;2023-01-29T13:45:42;11.70;;;10.50;;
7517;SDS011;3800;48.922;9.444;2023-01-29T13:50:44;11.80;;;10.10;;
7517;SDS011;3800;48.922;9.444;2023-01-29T13:55:52;11.33;;;10.17;;
7517;SDS011;3800;48.922;9.444;2023-01-29T14:01:10;12.63;;;10.83;;
7517;SDS011;3800;48.922;9.444;2023-01-29T14:03:42;13.50;;;10.90;;
7517;SDS011;3800;48.922;9.444;2023-01-29T14:06:09;13.03;;;11.00;;
7517;SDS011;3800;48.922;9.444;2023-01-29T14:08:38;13.47;;;11.40;;
7517;SDS011;3800;48.922;9.444;2023-01-29T14:13:54;12.17;;;10.87;;
7517;SDS011;3800;48.922;9.444;2023-01-29T14:16:26;12.17;;;10.30;;
7517;SDS011;3800;48.922;9.444;2023-01-29T14:18:56;11.20;;;10.10;;
7517;SDS011;3800;48.922;9.444;2023-01-29T14:21:24;11.70;;;10.37;;
7517;SDS011;3800;48.922;9.444;2023-01-29T14:23:52;10.63;;;9.63;;
7517;SDS011;3800;48.922;9.444;2023-01-29T14:26:21;15.53;;;12.17;;
7517;SDS011;3800;48.922;9.444;2023-01-29T14:29:23;12.83;;;10.17;;
7517;SDS011;3800;48.922;9.444;2023-01-29T14:31:36;11.87;;;10.37;;
7517;SDS011;3800;48.922;9.444;2023-01-29T14:34:03;11.53;;;10.37;;
7517;SDS011;3800;48.922;9.444;2023-01-29T14:36:37;12.23;;;10.17;;
7517;SDS011;3800;48.922;9.444;2023-01-29T14:38:58;11.93;;;10.67;;
7517;SDS011;3800;48.922;9.444;2023-01-29T14:41:28;11.93;;;10.63;;
7517;SDS011;3800;48.922;9.444;2023-01-29T14:46:41;13.53;;;11.60;;
7517;SDS011;3800;48.922;9.444;2023-01-29T14:49:09;14.00;;;11.53;;
7517;SDS011;3800;48.922;9.444;2023-01-29T14:51:39;13.03;;;11.40;;
7517;SDS011;3800;48.922;9.444;2023-01-29T14:56:45;12.33;;;11.03;;
7517;SDS011;3800;48.922;9.444;2023-01-29T14:59:32;12.50;;;11.03;;
7517;SDS011;3800;48.922;9.444;2023-01-29T15:02:03;12.53;;;10.60;;
7517;SDS011;3800;48.922;9.444;2023-01-29T15:04:34;13.30;;;11.27;;
7517;SDS011;3800;48.922;9.444;2023-01-29T15:07:00;12.77;;;10.90;;
7517;SDS011;3800;48.922;9.444;2023-01-29T15:09:32;12.47;;;11.17;;
7517;SDS011;3800;48.922;9.444;2023-01-29T15:12:02;13.33;;;11.20;;
7517;SDS011;3800;48.922;9.444;2023-01-29T15:14:30;11.63;;;10.53;;
7517;SDS011;3800;48.922;9.444;2023-01-29T15:17:01;14.13;;;11.53;;
7517;SDS011;3800;48.922;9.444;2023-01-29T15:19:44;13.50;;;10.73;;
7517;SDS011;3800;48.922;9.444;2023-01-29T15:22:13;18.63;;;14.67;;
7517;SDS011;3800;48.922;9.444;2023-01-29T15:24:41;22.00;;;15.43;;
7517;SDS011;3800;48.922;9.444;2023-01-29T15:27:12;20.30;;;14.43;;
7517;SDS011;3800;48.922;9.444;2023-01-29T15:29:42;28.63;;;19.67;;
7517;SDS011;3800;48.922;9.444;2023-01-29T15:32:12;23.07;;;18.20;;
7517;SDS011;3800;48.922;9.444;2023-01-29T15:34:49;14.60;;;12.77;;
7517;SDS011;3800;48.922;9.444;2023-01-29T15:39:53;14.13;;;11.80;;
7517;SDS011;3800;48.922;9.444;2023-01-29T15:42:21;14.53;;;12.90;;
7517;SDS011;3800;48.922;9.444;2023-01-29T15:44:49;12.70;;;11.33;;
7517;SDS011;3800;48.922;9.444;2023-01-29T15:47:17;14.40;;;12.37;;
7517;SDS011;3800;48.922;9.444;2023-01-29T15:49:45;14.77;;;12.53;;
7517;SDS011;3800;48.922;9.444;2023-01-29T15:52:18;15.53;;;13.00;;
7517;SDS011;3800;48.922;9.444;2023-01-29T15:54:45;14.20;;;12.63;;
7517;SDS011;3800;48.922;9.444;2023-01-29T15:57:18;14.83;;;12.00;;
7517;SDS011;3800;48.922;9.444;2023-01-29T15:59:50;12.27;;;10.97;;
7517;SDS011;3800;48.922;9.444;2023-01-29T16:02:52;12.77;;;11.40;;
7517;SDS011;3800;48.922;9.444;2023-01-29T16:05:05;13.50;;;10.80;;
7517;SDS011;3800;48.922;9.444;2023-01-29T16:07:32;13.07;;;11.07;;
7517;SDS011;3800;48.922;9.444;2023-01-29T16:10:00;14.47;;;11.73;;
7517;SDS011;3800;48.922;9.444;2023-01-29T16:12:28;13.73;;;12.27;;
7517;SDS011;3800;48.922;9.444;2023-01-29T16:14:56;13.13;;;11.60;;